»·PEaware :: N344HU KBFL-KMHV

N344HU :: KBFL-KMHV

FLIGHT INFORMATION

Flight Status: Arrived
Operator: Privately registered:
United States
More flights under this callsign
Pilot: Edward H. (2712)
Aircraft: CESSNA 172 SKYHAWK
(C172)
More flights by this aircraft type
Origin: KBFL Meadows
United States
Destination: KMHV Mojave
United States
More flights between these airports :: More routes between these airports
Route: +
File this flight plan on PilotEdge
Remarks: CAT6
Altitude:
(Current/Filed)
7,500ft
Speed:
(Current/Filed)
0kts
Departed: 24-Apr-18 07:22 AM
Arrived: 24-Apr-18 07:59 AM
Distance/Time
Traveled:
50nm/0:37
Distance/Time
To Go:
Arrived

Flight Plot

Page will automatically refresh every two minutes.


Map Options




Map Legend


Flown Route
Filed Route
Departure Airport
Arrival Airport
Navaid (VOR, NDB)
Fix

Horizontal Profiles

Position Reports

Time Latitude Longitude Heading Altitude Ground
Speed
24-Apr-18 07:15 35.429228 -119.046348 232 510ft 0kts
24-Apr-18 07:16 35.429228 -119.046348 232 510ft 0kts
24-Apr-18 07:17 35.429187 -119.046405 226 510ft 5kts
24-Apr-18 07:18 35.427590 -119.046363 148 510ft 9kts
24-Apr-18 07:19 35.425644 -119.044851 238 510ft 0kts
24-Apr-18 07:20 35.425644 -119.044851 238 510ft 0kts
24-Apr-18 07:21 35.431201 -119.053021 315 555ft 93kts
24-Apr-18 07:22 35.446574 -119.073576 327 1587ft 80kts
24-Apr-18 07:23 35.457527 -119.059527 135 2406ft 77kts
24-Apr-18 07:24 35.444385 -119.044786 136 3220ft 72kts
24-Apr-18 07:25 35.434741 -119.025929 109 3961ft 74kts
24-Apr-18 07:26 35.420634 -119.008372 133 4390ft 96kts
24-Apr-18 07:27 35.405287 -118.983834 120 4845ft 103kts
24-Apr-18 07:28 35.393105 -118.958813 116 5257ft 104kts
24-Apr-18 07:29 35.382837 -118.935511 113 6021ft 70kts
24-Apr-18 07:30 35.374898 -118.917220 113 6395ft 94kts
24-Apr-18 07:31 35.363965 -118.890556 113 6942ft 87kts
24-Apr-18 07:32 35.353519 -118.864977 113 7430ft 93kts
24-Apr-18 07:33 35.341147 -118.835141 115 7505ft 103kts
24-Apr-18 07:34 35.328887 -118.805473 115 7501ft 99kts
24-Apr-18 07:35 35.316322 -118.774937 115 7504ft 107kts
24-Apr-18 07:36 35.303342 -118.743436 115 7509ft 105kts
24-Apr-18 07:37 35.290190 -118.711527 114 7526ft 105kts
24-Apr-18 07:38 35.278899 -118.683847 113 7541ft 105kts
24-Apr-18 07:39 35.266413 -118.651983 114 7558ft 105kts
24-Apr-18 07:40 35.253532 -118.620369 115 7571ft 106kts
24-Apr-18 07:41 35.240383 -118.588591 114 7588ft 106kts
24-Apr-18 07:42 35.227178 -118.556630 114 7604ft 107kts
24-Apr-18 07:43 35.214089 -118.525009 114 7592ft 109kts
24-Apr-18 07:44 35.200290 -118.491730 114 7523ft 110kts
24-Apr-18 07:45 35.186725 -118.459030 115 7494ft 111kts
24-Apr-18 07:46 35.171987 -118.423173 112 6557ft 122kts
24-Apr-18 07:47 35.160032 -118.393124 113 6508ft 102kts
24-Apr-18 07:48 35.145545 -118.362637 124 6484ft 106kts
24-Apr-18 07:49 35.131354 -118.340151 124 6470ft 106kts
24-Apr-18 07:50 35.113915 -118.312506 124 6454ft 106kts
24-Apr-18 07:51 35.095376 -118.282641 124 5934ft 123kts
24-Apr-18 07:52 35.080733 -118.254335 80 5599ft 83kts
24-Apr-18 07:53 35.086572 -118.267696 314 5426ft 83kts
24-Apr-18 07:54 35.081217 -118.243205 112 5008ft 108kts
24-Apr-18 07:55 35.066255 -118.211352 120 4067ft 96kts
24-Apr-18 07:56 35.060087 -118.184833 99 3380ft 86kts
24-Apr-18 07:57 35.059229 -118.155818 90 2795ft 61kts
24-Apr-18 07:58 35.058511 -118.149924 133 2795ft 0kts
24-Apr-18 07:59 35.058511 -118.149924 133 2795ft 0kts
24-Apr-18 08:00 35.058487 -118.149892 130 2795ft 0kts
24-Apr-18 08:01 35.057535 -118.151229 260 2795ft 16kts
24-Apr-18 08:02 35.056853 -118.152904 4 2795ft 0kts
24-Apr-18 08:03 35.056853 -118.152904 4 2795ft 0kts
24-Apr-18 08:04 35.056853 -118.152904 4 2795ft 0kts

Navigation Log

Ident Type
Flight plan parsing failed, navigation log unavailable